Amagansett, New York
Current Conditions -  °F | °C
As of 6:56 PM on Wednesday 26 Nov 2014 (Local Time) from KGON Reporting Station
Light Rain Light Rain  
Wind Chill: 26°   Ceiling: 1600
Heat Index: 37°   Visibility: 7mi
Dew Point: 35°   Wind: 23mph
Humidity: 93%   Direction: 20°NNE
Pressure: 29.64"   Gusts: 38mph
Location:  40.97°N, 72.14°W
Report Text: KGON 262356Z 02020G33KT 7SM -RA OVC016 03/02 A2964 RMK AO2 PK WND 03033/2347 SLP035 P0000 60049 T00280017 10028 20017 56062
Loading
Personal Weather Stations






























Interactive Weather Map New forecast layout! Learn more

10-Day Weather Forecast

Advertisements
Track Severe Weather on mobile